Dades meteomassalio
 
Diari Summary for Maig 20, 2018 Units:  English    Metric   Both
« Previous Day
Next Day »
Diari Semanal Mensual Anual Personalitzat
  Actual: Maxima: Minima: Mijana:
Temperatura: 20.6 °F TemperatureC °F 11.1 °F 15.8 °F
Rosada: 12.8 °F DewpointC °F 9.6 °F 12.5 °F
Humitat: 61 % Humidity % 56 % 81 %
Velocitat del vent: 11.3 mph WindSpeedKMH mph 0.0 mph 3.3 mph
Racha vent: 11.3 mph WindSpeedGustKMH mph - -
Vent:North - - SSW
Pressio: 1015.8 in PressurehPa in 1015.8 in -
Pluja: 0.0 in      
Historical Graphs
 
 
Tabular Data for Maig 20, 2018
Time Temperature Dew Point Pressure Wind Wind Speed Wind Gust Humidity Rainfall Rate (Hourly) solar Conditions
TemperatureC °F DewpointC °F PressurehPa in Calm     Humidity % HourlyPrecipMM in SolarRadiationWatts/m^2 W/m2 Conditions
00:04 16.7 °F 13.0 °F 1018.8 in Calm     79 % 0.0 in 0.0 W/m2 CLR
00:09 16.1 °F 12.7 °F 1018.8 in Calm     80 % 0.0 in 0.0 W/m2 CLR
00:14 16.1 °F 12.7 °F 1018.8 in Calm     80 % 0.0 in 0.0 W/m2 CLR
00:19 16.1 °F 12.8 °F 1018.8 in Calm     81 % 0.0 in 0.0 W/m2 CLR
00:24 16.1 °F 13.1 °F 1018.8 in Calm     82 % 0.0 in 0.0 W/m2 CLR
00:29 16.1 °F 13.1 °F 1018.8 in Calm     82 % 0.0 in 0.0 W/m2 CLR
00:34 15.6 °F 12.5 °F 1018.8 in Calm     82 % 0.0 in 0.0 W/m2 CLR
00:39 15.6 °F 12.5 °F 1018.8 in Calm     82 % 0.0 in 0.0 W/m2 CLR
00:44 15.6 °F 12.7 °F 1018.5 in Calm     83 % 0.0 in 0.0 W/m2 CLR
00:49 15.6 °F 12.9 °F 1018.5 in Calm     84 % 0.0 in 0.0 W/m2 CLR
00:51 15.6 °F 12.9 °F 1018.5 in Calm     84 % 0.0 in 0.0 W/m2 CLR
00:56 15.6 °F 13.1 °F 1018.5 in Calm     85 % 0.0 in 0.0 W/m2 CLR
01:01 15.6 °F 13.1 °F 1018.5 in West 7.4 mph 7.4 mph 85 % 0.0 in 0.0 W/m2 CLR
01:06 15.6 °F 13.1 °F 1018.5 in WSW 9.3 mph 9.3 mph 85 % 0.0 in 0.0 W/m2 CLR
01:11 15.6 °F 13.1 °F 1018.5 in WSW 7.4 mph 7.4 mph 85 % 0.0 in 0.0 W/m2 CLR
01:16 15.6 °F 13.2 °F 1018.5 in Calm     86 % 0.0 in 0.0 W/m2 CLR
01:21 15.6 °F 13.2 °F 1018.5 in West 7.4 mph 7.4 mph 86 % 0.0 in 0.0 W/m2 CLR
01:26 15.6 °F 13.1 °F 1018.5 in Calm     85 % 0.0 in 0.0 W/m2 CLR
01:31 15.0 °F 12.5 °F 1018.5 in Calm     85 % 0.0 in 0.0 W/m2 CLR
01:36 15.0 °F 12.5 °F 1018.5 in Calm     85 % 0.0 in 0.0 W/m2 CLR
01:41 15.0 °F 12.5 °F 1018.5 in Calm     85 % 0.0 in 0.0 W/m2 CLR
01:46 15.0 °F 12.5 °F 1018.5 in Calm     85 % 0.0 in 0.0 W/m2 CLR
01:51 15.0 °F 12.3 °F 1018.5 in Calm     84 % 0.0 in 0.0 W/m2 CLR
01:56 14.4 °F 11.8 °F 1018.5 in Calm     84 % 0.0 in 0.0 W/m2 CLR
02:01 14.4 °F 11.8 °F 1018.5 in Calm     84 % 0.0 in 0.0 W/m2 CLR
02:04 14.4 °F 11.9 °F 1018.5 in Calm     85 % 0.0 in 0.0 W/m2 CLR
02:09 14.4 °F 12.1 °F 1018.5 in NE 8.0 mph 8.0 mph 86 % 0.0 in 0.0 W/m2 CLR
02:14 14.4 °F 12.3 °F 1018.5 in Calm     87 % 0.0 in 0.0 W/m2 CLR
02:19 14.4 °F 12.5 °F 1018.5 in Calm     88 % 0.0 in 0.0 W/m2 CLR
02:24 14.4 °F 12.5 °F 1018.2 in Calm     88 % 0.0 in 0.0 W/m2 CLR
02:29 14.4 °F 12.5 °F 1018.2 in Calm     88 % 0.0 in 0.0 W/m2 CLR
02:34 14.4 °F 12.5 °F 1018.2 in Calm     88 % 0.0 in 0.0 W/m2 CLR
02:39 14.4 °F 12.5 °F 1018.2 in Calm     88 % 0.0 in 0.0 W/m2 CLR
02:44 14.4 °F 12.5 °F 1018.2 in Calm     88 % 0.0 in 0.0 W/m2 CLR
02:49 14.4 °F 12.5 °F 1018.2 in Calm     88 % 0.0 in 0.0 W/m2 CLR
02:54 13.9 °F 11.9 °F 1018.2 in Calm     88 % 0.0 in 0.0 W/m2 CLR
02:59 13.9 °F 11.9 °F 1018.2 in Calm     88 % 0.0 in 0.0 W/m2 CLR
03:04 13.9 °F 11.9 °F 1018.2 in Calm     88 % 0.0 in 0.0 W/m2 CLR
03:09 13.9 °F 11.9 °F 1018.2 in Calm     88 % 0.0 in 0.0 W/m2 CLR
03:14 13.9 °F 11.9 °F 1018.2 in Calm     88 % 0.0 in 0.0 W/m2 CLR
03:19 13.9 °F 11.9 °F 1018.2 in Calm     88 % 0.0 in 0.0 W/m2 CLR
03:24 13.9 °F 12.1 °F 1017.8 in Calm     89 % 0.0 in 0.0 W/m2 CLR
03:26 13.9 °F 12.1 °F 1017.8 in Calm     89 % 0.0 in 0.0 W/m2 CLR
03:31 13.9 °F 12.1 °F 1017.8 in Calm     89 % 0.0 in 0.0 W/m2 CLR
03:36 13.9 °F 12.1 °F 1017.8 in Calm     89 % 0.0 in 0.0 W/m2 CLR
03:41 13.9 °F 12.1 °F 1017.8 in Calm     89 % 0.0 in 0.0 W/m2 CLR
03:46 13.9 °F 12.1 °F 1017.8 in Calm     89 % 0.0 in 0.0 W/m2 CLR
03:51 13.9 °F 12.1 °F 1017.5 in Calm     89 % 0.0 in 0.0 W/m2 CLR
03:56 13.9 °F 12.1 °F 1017.5 in Calm     89 % 0.0 in 0.0 W/m2 CLR
04:01 13.9 °F 12.1 °F 1017.5 in Calm     89 % 0.0 in 0.0 W/m2 CLR
04:06 13.9 °F 12.1 °F 1017.5 in Calm     89 % 0.0 in 0.0 W/m2 CLR
04:11 13.9 °F 12.1 °F 1017.5 in Calm     89 % 0.0 in 0.0 W/m2 CLR
04:16 13.9 °F 12.1 °F 1017.5 in Calm     89 % 0.0 in 0.0 W/m2 CLR
04:21 13.3 °F 11.6 °F 1017.5 in Calm     89 % 0.0 in 0.0 W/m2 CLR
04:26 13.3 °F 11.7 °F 1017.5 in Calm     90 % 0.0 in 0.0 W/m2 CLR
04:31 13.3 °F 11.7 °F 1017.5 in Calm     90 % 0.0 in 0.0 W/m2 CLR
04:36 13.3 °F 11.7 °F 1017.5 in Calm     90 % 0.0 in 0.0 W/m2 CLR
04:41 12.8 °F 11.2 °F 1017.5 in Calm     90 % 0.0 in 0.0 W/m2 CLR
04:46 12.8 °F 11.2 °F 1017.5 in Calm     90 % 0.0 in 0.0 W/m2 CLR
04:51 12.2 °F 10.6 °F 1017.5 in Calm     90 % 0.0 in 0.0 W/m2 CLR
04:56 12.2 °F 10.6 °F 1017.5 in Calm     90 % 0.0 in 0.0 W/m2 CLR
05:01 11.7 °F 10.1 °F 1017.5 in Calm     90 % 0.0 in 0.0 W/m2 CLR
05:06 11.7 °F 10.1 °F 1017.5 in Calm     90 % 0.0 in 0.0 W/m2 CLR
05:11 11.7 °F 10.1 °F 1017.5 in Calm     90 % 0.0 in 0.0 W/m2 CLR
05:16 11.1 °F 9.6 °F 1017.5 in Calm     90 % 0.0 in 0.0 W/m2 CLR
05:17 11.1 °F 9.6 °F 1017.5 in Calm     90 % 0.0 in 0.0 W/m2 CLR
05:22 11.1 °F 9.6 °F 1017.5 in Calm     90 % 0.0 in 0.0 W/m2 CLR
05:27 11.1 °F 9.6 °F 1017.8 in Calm     90 % 0.0 in 0.0 W/m2 CLR
05:32 11.1 °F 9.6 °F 1017.5 in Calm     90 % 0.0 in 0.0 W/m2 CLR
05:37 11.1 °F 9.7 °F 1017.5 in Calm     91 % 0.0 in 0.0 W/m2 CLR
05:42 11.7 °F 10.2 °F 1017.5 in Calm     91 % 0.0 in 0.0 W/m2 CLR
05:47 11.7 °F 10.2 °F 1017.5 in Calm     91 % 0.0 in 0.0 W/m2 CLR
05:52 11.7 °F 10.2 °F 1017.8 in Calm     91 % 0.0 in 0.0 W/m2 CLR
05:57 11.7 °F 10.2 °F 1017.5 in Calm     91 % 0.0 in 0.0 W/m2 CLR
06:02 11.7 °F 10.2 °F 1017.5 in Calm     91 % 0.0 in 0.0 W/m2 CLR
06:07 11.1 °F 9.7 °F 1017.5 in Calm     91 % 0.0 in 0.0 W/m2 CLR
06:12 11.1 °F 9.7 °F 1017.5 in Calm     91 % 0.0 in 0.0 W/m2 CLR
06:17 11.1 °F 9.7 °F 1017.5 in Calm     91 % 0.0 in 0.0 W/m2 CLR
06:22 11.1 °F 9.7 °F 1017.5 in Calm     91 % 0.0 in 0.0 W/m2 CLR
06:27 11.1 °F 9.7 °F 1017.5 in Calm     91 % 0.0 in 0.0 W/m2 OVC
06:32 11.7 °F 10.2 °F 1017.5 in Calm     91 % 0.0 in 0.0 W/m2 OVC
06:37 11.7 °F 10.4 °F 1017.5 in Calm     92 % 0.0 in 0.0 W/m2 OVC
06:42 11.7 °F 10.4 °F 1017.5 in Calm     92 % 0.0 in 5.0 W/m2 OVC
06:47 11.7 °F 10.4 °F 1017.5 in Calm     92 % 0.0 in 9.0 W/m2 BKN
06:52 11.7 °F 10.2 °F 1017.5 in Calm     91 % 0.0 in 14.0 W/m2 BKN
06:57 11.7 °F 10.4 °F 1017.5 in Calm     92 % 0.0 in 19.0 W/m2 BKN
07:02 11.7 °F 10.2 °F 1017.5 in Calm     91 % 0.0 in 28.0 W/m2 BKN
07:07 11.7 °F 10.4 °F 1017.8 in Calm     92 % 0.0 in 33.0 W/m2 BKN
07:12 11.7 °F 10.4 °F 1017.8 in Calm     92 % 0.0 in 40.0 W/m2 BKN
07:17 11.7 °F 10.4 °F 1017.8 in Calm     92 % 0.0 in 47.0 W/m2 SCT
07:22 12.2 °F 10.9 °F 1017.8 in Calm     92 % 0.0 in 54.0 W/m2 SCT
07:27 12.2 °F 10.9 °F 1017.8 in Calm     92 % 0.0 in 56.0 W/m2 SCT
07:32 12.2 °F 10.9 °F 1017.8 in Calm     92 % 0.0 in 63.0 W/m2 SCT
07:37 12.2 °F 10.9 °F 1017.8 in Calm     92 % 0.0 in 70.0 W/m2 FEW
07:42 12.8 °F 11.5 °F 1018.2 in Calm     92 % 0.0 in 76.0 W/m2 FEW
07:47 12.8 °F 11.5 °F 1018.2 in Calm     92 % 0.0 in 77.0 W/m2 FEW
07:52 12.8 °F 11.5 °F 1018.2 in Calm     92 % 0.0 in 77.0 W/m2 FEW
07:57 12.8 °F 11.5 °F 1018.2 in West 9.3 mph 9.3 mph 92 % 0.0 in 70.0 W/m2 FEW
08:02 13.3 °F 11.9 °F 1018.2 in West 9.3 mph 9.3 mph 91 % 0.0 in 130.0 W/m2 FEW
08:07 13.3 °F 11.9 °F 1018.2 in West 6.4 mph 6.4 mph 91 % 0.0 in 139.0 W/m2 CLR
08:12 13.3 °F 11.9 °F 1018.2 in Calm     91 % 0.0 in 179.0 W/m2 CLR
08:17 13.9 °F 12.4 °F 1018.2 in Calm     91 % 0.0 in 192.0 W/m2 CLR
08:22 14.4 °F 12.8 °F 1018.2 in West 5.6 mph 5.6 mph 90 % 0.0 in 211.0 W/m2 CLR
08:27 15.0 °F 13.4 °F 1018.2 in West 7.4 mph 7.4 mph 90 % 0.0 in 227.0 W/m2 CLR
08:32 15.6 °F 13.9 °F 1018.2 in West 11.3 mph 11.3 mph 90 % 0.0 in 244.0 W/m2 CLR
08:37 15.6 °F 13.9 °F 1018.2 in WSW 5.6 mph 5.6 mph 90 % 0.0 in 264.0 W/m2 CLR
08:42 16.1 °F 14.3 °F 1018.2 in WNW 7.4 mph 7.4 mph 89 % 0.0 in 281.0 W/m2 CLR
08:47 16.7 °F 14.8 °F 1018.2 in WNW 5.6 mph 5.6 mph 89 % 0.0 in 299.0 W/m2 CLR
08:52 16.7 °F 14.7 °F 1018.2 in West 11.1 mph 11.1 mph 88 % 0.0 in 325.0 W/m2 CLR
08:57 16.7 °F 14.7 °F 1018.2 in West 9.3 mph 9.3 mph 88 % 0.0 in 359.0 W/m2 CLR
09:02 16.7 °F 14.3 °F 1018.2 in WNW 13.0 mph 13.0 mph 86 % 0.0 in 178.0 W/m2 CLR
09:07 17.2 °F 14.8 °F 1018.2 in West 8.0 mph 8.0 mph 86 % 0.0 in 134.0 W/m2 CLR
09:12 17.2 °F 14.7 °F 1018.2 in West 9.3 mph 9.3 mph 85 % 0.0 in 158.0 W/m2 CLR
09:17 16.7 °F 14.3 °F 1018.2 in WNW 11.1 mph 11.1 mph 86 % 0.0 in 192.0 W/m2 CLR
09:22 16.7 °F 14.1 °F 1018.2 in West 7.4 mph 7.4 mph 85 % 0.0 in 192.0 W/m2 CLR
09:27 17.2 °F 14.5 °F 1018.2 in WNW 5.6 mph   84 % 0.0 in 489.0 W/m2 CLR
09:32 17.2 °F 14.3 °F 1017.8 in NNW 6.4 mph 6.4 mph 83 % 0.0 in 475.0 W/m2 CLR
09:38 17.2 °F 14.1 °F 1017.8 in WNW 11.1 mph 11.1 mph 82 % 0.0 in 169.0 W/m2 CLR
09:42 17.2 °F 13.9 °F 1018.2 in WNW 9.3 mph 9.3 mph 81 % 0.0 in 211.0 W/m2 CLR
09:48 16.7 °F 13.4 °F 1017.8 in NW 9.3 mph 9.3 mph 81 % 0.0 in 162.0 W/m2 CLR
09:53 17.2 °F 13.9 °F 1017.8 in NW 7.4 mph 7.4 mph 81 % 0.0 in 599.0 W/m2 CLR
09:58 17.8 °F 13.9 °F 1017.8 in North 9.3 mph 9.3 mph 78 % 0.0 in 234.0 W/m2 CLR
10:03 17.8 °F 13.9 °F 1017.8 in Calm     78 % 0.0 in 148.0 W/m2 CLR
10:08 17.8 °F 13.9 °F 1017.8 in North 7.4 mph   78 % 0.0 in 571.0 W/m2 CLR
10:13 17.8 °F 13.9 °F 1017.8 in North 11.1 mph 11.1 mph 78 % 0.0 in 628.0 W/m2 CLR
10:18 18.3 °F 14.2 °F 1017.8 in WSW 3.7 mph 3.7 mph 77 % 0.0 in 652.0 W/m2 CLR
10:23 18.3 °F 14.0 °F 1017.8 in NNW 16.7 mph 16.7 mph 76 % 0.0 in 728.0 W/m2 CLR
10:28 18.3 °F 13.8 °F 1017.8 in NW 7.4 mph 7.4 mph 75 % 0.0 in 633.0 W/m2 CLR
10:33 18.9 °F 14.6 °F 1017.8 in Calm     76 % 0.0 in 497.0 W/m2 CLR
10:38 18.3 °F 13.8 °F 1017.8 in NW 14.8 mph 14.8 mph 75 % 0.0 in 756.0 W/m2 CLR
10:43 18.9 °F 14.2 °F 1017.8 in NNW 11.1 mph 11.1 mph 74 % 0.0 in 232.0 W/m2 CLR
10:48 18.9 °F 14.2 °F 1017.8 in NNW 6.4 mph 6.4 mph 74 % 0.0 in 241.0 W/m2 CLR
10:53 18.3 °F 13.6 °F 1017.8 in Calm     74 % 0.0 in 842.0 W/m2 CLR
10:58 18.3 °F 13.4 °F 1017.8 in Calm     73 % 0.0 in 385.0 W/m2 CLR
11:03 18.3 °F 13.2 °F 1017.8 in North 11.3 mph 11.3 mph 72 % 0.0 in 288.0 W/m2 CLR
11:08 19.4 °F 14.3 °F 1017.8 in WNW 5.6 mph   72 % 0.0 in 248.0 W/m2 CLR
11:13 19.4 °F 14.3 °F 1017.8 in NE 3.2 mph 3.2 mph 72 % 0.0 in 315.0 W/m2 CLR
11:18 19.4 °F 14.1 °F 1017.8 in Calm     71 % 0.0 in 411.0 W/m2 CLR
11:23 20.0 °F 14.3 °F 1017.5 in Calm     70 % 0.0 in 1011.0 W/m2 CLR
11:24 20.0 °F 14.6 °F 1017.5 in Calm   0.2 mph 71 % 0.0 in 1011.0 W/m2 CLR
11:29 19.4 °F 13.6 °F 1017.5 in North 11.1 mph 11.1 mph 69 % 0.0 in 330.0 W/m2 CLR
11:34 19.4 °F 13.8 °F 1017.5 in NNE 5.6 mph 5.6 mph 70 % 0.0 in 323.0 W/m2 CLR
11:39 18.9 °F 13.3 °F 1017.5 in Calm     70 % 0.0 in 415.0 W/m2 CLR
11:44 19.4 °F 13.8 °F 1017.5 in Calm     70 % 0.0 in 1069.0 W/m2 CLR
11:49 20.0 °F 14.1 °F 1017.5 in WNW 7.4 mph   69 % 0.0 in 327.0 W/m2 CLR
11:54 20.6 °F 14.7 °F 1017.5 in West 5.6 mph 5.6 mph 69 % 0.0 in 329.0 W/m2 CLR
11:59 20.0 °F 14.3 °F 1017.5 in NNE 7.4 mph 7.4 mph 70 % 0.0 in 494.0 W/m2 CLR
12:04 20.0 °F 14.1 °F 1017.5 in NNE 5.6 mph 5.6 mph 69 % 0.0 in 385.0 W/m2 CLR
12:09 19.4 °F 13.6 °F 1017.5 in NE 13.0 mph 13.0 mph 69 % 0.0 in 1027.0 W/m2 CLR
12:14 20.0 °F 13.7 °F 1017.2 in NNW 5.6 mph 5.6 mph 67 % 0.0 in 1032.0 W/m2 CLR
12:19 20.6 °F 13.7 °F 1017.2 in NNE 16.7 mph 16.7 mph 65 % 0.0 in 309.0 W/m2 CLR
12:24 21.1 °F 14.3 °F 1017.2 in NE 11.3 mph 11.3 mph 65 % 0.0 in 313.0 W/m2 CLR
12:29 21.1 °F 14.5 °F 1017.2 in NNE 11.1 mph 11.1 mph 66 % 0.0 in 979.0 W/m2 CLR
12:34 21.1 °F 14.3 °F 1017.2 in Calm   0.5 mph 65 % 0.0 in 981.0 W/m2 CLR
12:39 21.1 °F 14.1 °F 1016.8 in NE 3.7 mph   64 % 0.0 in 805.0 W/m2 CLR
12:44 21.7 °F 13.8 °F 1016.8 in NNE 18.5 mph 18.5 mph 61 % 0.0 in 805.0 W/m2 CLR
12:49 21.7 °F 14.1 °F 1016.8 in NNE 11.1 mph   62 % 0.0 in 1055.0 W/m2 CLR
12:54 21.7 °F 13.8 °F 1016.8 in NNE 7.4 mph 7.4 mph 61 % 0.0 in 346.0 W/m2 CLR
12:59 21.1 °F 13.8 °F 1016.5 in NNW 8.0 mph 8.0 mph 63 % 0.0 in 933.0 W/m2 CLR
13:04 21.1 °F 13.3 °F 1016.5 in East 5.6 mph 5.6 mph 61 % 0.0 in 965.0 W/m2 CLR
13:09 21.1 °F 12.8 °F 1016.5 in South 1.9 mph 1.9 mph 59 % 0.0 in 1016.0 W/m2 CLR
13:14 21.1 °F 12.5 °F 1016.5 in Calm     58 % 0.0 in 1144.0 W/m2 CLR
13:19 22.2 °F 13.6 °F 1016.5 in WNW 6.4 mph 6.4 mph 58 % 0.0 in 338.0 W/m2 CLR
13:24 23.3 °F 14.3 °F 1016.1 in North 14.8 mph 14.8 mph 57 % 0.0 in 1125.0 W/m2 CLR
13:29 22.2 °F 13.0 °F 1016.1 in North 9.3 mph 9.3 mph 56 % 0.0 in 1153.0 W/m2 CLR
13:34 22.8 °F 13.8 °F 1016.1 in North 3.7 mph 3.7 mph 57 % 0.0 in 1139.0 W/m2 CLR
13:39 23.3 °F 14.3 °F 1016.1 in NE 1.9 mph   57 % 0.0 in 1266.0 W/m2 CLR
13:44 23.3 °F 14.3 °F 1016.1 in NNW 3.7 mph 3.7 mph 57 % 0.0 in 336.0 W/m2 CLR
13:49 23.3 °F 14.3 °F 1015.8 in Calm     57 % 0.0 in 454.0 W/m2 CLR
13:54 22.2 °F 13.3 °F 1015.8 in ENE 3.7 mph   57 % 0.0 in 278.0 W/m2 CLR
13:59 21.1 °F 12.5 °F 1015.8 in NNE 18.5 mph 18.5 mph 58 % 0.0 in 230.0 W/m2 CLR
14:04 21.1 °F 13.1 °F 1015.8 in NNE 5.6 mph 5.6 mph 60 % 0.0 in 209.0 W/m2 CLR
14:09 20.6 °F 12.5 °F 1015.8 in NNW 7.4 mph 7.4 mph 60 % 0.0 in 197.0 W/m2 CLR
14:14 20.6 °F 12.8 °F 1015.8 in North 11.3 mph 11.3 mph 61 % 0.0 in 125.0 W/m2 CLR
Lo Temps de Massalio
Compliments of Weather Underground - 768 kb